sensor_id;sensor_type;location;lat;lon;timestamp;pressure;altitude;pressure_sealevel;temperature;humidity
10518;BME280;5307;42.548;22.968;2023-03-22T00:01:13;93452.31;;;8.00;100.00
10518;BME280;5307;42.548;22.968;2023-03-22T00:03:40;93447.53;;;8.04;100.00
10518;BME280;5307;42.548;22.968;2023-03-22T00:06:07;93453.09;;;8.01;100.00
10518;BME280;5307;42.548;22.968;2023-03-22T00:08:35;93449.81;;;8.06;100.00
10518;BME280;5307;42.548;22.968;2023-03-22T00:11:03;93449.16;;;8.02;100.00
10518;BME280;5307;42.548;22.968;2023-03-22T00:13:31;93455.75;;;7.92;100.00
10518;BME280;5307;42.548;22.968;2023-03-22T00:15:58;93456.91;;;8.03;100.00
10518;BME280;5307;42.548;22.968;2023-03-22T00:18:27;93450.31;;;7.92;100.00
10518;BME280;5307;42.548;22.968;2023-03-22T00:20:56;93445.09;;;7.85;100.00
10518;BME280;5307;42.548;22.968;2023-03-22T00:23:24;93443.66;;;7.93;100.00
10518;BME280;5307;42.548;22.968;2023-03-22T00:25:53;93453.22;;;7.97;100.00
10518;BME280;5307;42.548;22.968;2023-03-22T00:28:20;93456.06;;;7.94;100.00
10518;BME280;5307;42.548;22.968;2023-03-22T00:30:51;93450.03;;;7.99;100.00
10518;BME280;5307;42.548;22.968;2023-03-22T00:33:18;93452.94;;;7.83;100.00
10518;BME280;5307;42.548;22.968;2023-03-22T00:35:50;93451.53;;;7.78;100.00
10518;BME280;5307;42.548;22.968;2023-03-22T00:38:17;93448.03;;;7.90;100.00
10518;BME280;5307;42.548;22.968;2023-03-22T00:40:44;93441.31;;;7.69;100.00
10518;BME280;5307;42.548;22.968;2023-03-22T00:43:12;93458.94;;;7.65;100.00
10518;BME280;5307;42.548;22.968;2023-03-22T00:45:40;93451.88;;;7.67;100.00
10518;BME280;5307;42.548;22.968;2023-03-22T00:48:07;93457.31;;;7.67;100.00
10518;BME280;5307;42.548;22.968;2023-03-22T00:50:35;93453.41;;;7.68;100.00
10518;BME280;5307;42.548;22.968;2023-03-22T00:53:01;93451.25;;;7.63;100.00
10518;BME280;5307;42.548;22.968;2023-03-22T00:55:29;93458.72;;;7.59;100.00
10518;BME280;5307;42.548;22.968;2023-03-22T00:57:56;93455.59;;;7.61;100.00
10518;BME280;5307;42.548;22.968;2023-03-22T01:00:24;93454.28;;;7.65;100.00
10518;BME280;5307;42.548;22.968;2023-03-22T01:02:51;93460.22;;;7.73;100.00
10518;BME280;5307;42.548;22.968;2023-03-22T01:05:24;93459.88;;;7.84;100.00
10518;BME280;5307;42.548;22.968;2023-03-22T01:07:52;93463.63;;;7.64;100.00
10518;BME280;5307;42.548;22.968;2023-03-22T01:10:20;93458.34;;;7.48;100.00
10518;BME280;5307;42.548;22.968;2023-03-22T01:12:47;93460.97;;;7.73;100.00
10518;BME280;5307;42.548;22.968;2023-03-22T01:15:13;93456.56;;;7.67;100.00
10518;BME280;5307;42.548;22.968;2023-03-22T01:17:41;93462.19;;;7.72;100.00
10518;BME280;5307;42.548;22.968;2023-03-22T01:20:09;93458.50;;;7.79;100.00
10518;BME280;5307;42.548;22.968;2023-03-22T01:22:36;93450.47;;;7.76;100.00
10518;BME280;5307;42.548;22.968;2023-03-22T01:25:04;93461.94;;;7.92;100.00
10518;BME280;5307;42.548;22.968;2023-03-22T01:27:31;93459.38;;;7.76;100.00
10518;BME280;5307;42.548;22.968;2023-03-22T01:29:57;93461.66;;;7.78;100.00
10518;BME280;5307;42.548;22.968;2023-03-22T01:32:24;93457.72;;;7.79;100.00
10518;BME280;5307;42.548;22.968;2023-03-22T01:34:52;93463.81;;;7.83;100.00
10518;BME280;5307;42.548;22.968;2023-03-22T01:37:19;93458.13;;;7.90;100.00
10518;BME280;5307;42.548;22.968;2023-03-22T01:39:52;93464.22;;;7.94;100.00
10518;BME280;5307;42.548;22.968;2023-03-22T01:42:19;93456.09;;;7.81;100.00
10518;BME280;5307;42.548;22.968;2023-03-22T01:45:25;93465.13;;;7.78;100.00
10518;BME280;5307;42.548;22.968;2023-03-22T01:48:00;93456.94;;;7.91;100.00
10518;BME280;5307;42.548;22.968;2023-03-22T01:50:30;93460.47;;;8.00;100.00
10518;BME280;5307;42.548;22.968;2023-03-22T01:52:58;93460.28;;;7.95;100.00
10518;BME280;5307;42.548;22.968;2023-03-22T01:55:30;93463.34;;;7.84;100.00
10518;BME280;5307;42.548;22.968;2023-03-22T01:57:58;93463.94;;;7.79;100.00
10518;BME280;5307;42.548;22.968;2023-03-22T02:00:26;93460.44;;;7.79;100.00
10518;BME280;5307;42.548;22.968;2023-03-22T02:02:53;93459.81;;;7.74;100.00
10518;BME280;5307;42.548;22.968;2023-03-22T02:05:20;93461.75;;;7.74;100.00
10518;BME280;5307;42.548;22.968;2023-03-22T02:07:49;93458.41;;;7.57;100.00
10518;BME280;5307;42.548;22.968;2023-03-22T02:10:18;93462.44;;;7.65;100.00
10518;BME280;5307;42.548;22.968;2023-03-22T02:12:57;93463.19;;;7.66;100.00
10518;BME280;5307;42.548;22.968;2023-03-22T02:15:28;93467.75;;;7.69;100.00
10518;BME280;5307;42.548;22.968;2023-03-22T02:18:09;93465.91;;;7.66;100.00
10518;BME280;5307;42.548;22.968;2023-03-22T02:21:19;93460.69;;;7.59;100.00
10518;BME280;5307;42.548;22.968;2023-03-22T02:24:18;93465.16;;;7.65;100.00
10518;BME280;5307;42.548;22.968;2023-03-22T02:27:25;93464.91;;;7.72;100.00
10518;BME280;5307;42.548;22.968;2023-03-22T02:30:00;93475.56;;;7.67;100.00
10518;BME280;5307;42.548;22.968;2023-03-22T02:33:01;93471.84;;;7.73;100.00
10518;BME280;5307;42.548;22.968;2023-03-22T02:35:52;93478.41;;;7.63;100.00
10518;BME280;5307;42.548;22.968;2023-03-22T02:38:56;93473.88;;;7.60;100.00
10518;BME280;5307;42.548;22.968;2023-03-22T02:41:38;93483.19;;;7.59;100.00
10518;BME280;5307;42.548;22.968;2023-03-22T02:44:12;93483.19;;;7.59;100.00
10518;BME280;5307;42.548;22.968;2023-03-22T02:46:45;93483.41;;;7.65;100.00
10518;BME280;5307;42.548;22.968;2023-03-22T02:49:18;93492.66;;;7.67;100.00
10518;BME280;5307;42.548;22.968;2023-03-22T02:51:51;93492.00;;;7.63;100.00
10518;BME280;5307;42.548;22.968;2023-03-22T02:54:27;93490.81;;;7.64;100.00
10518;BME280;5307;42.548;22.968;2023-03-22T02:57:00;93486.75;;;7.69;100.00
10518;BME280;5307;42.548;22.968;2023-03-22T02:59:30;93496.34;;;7.61;100.00
10518;BME280;5307;42.548;22.968;2023-03-22T03:01:59;93495.47;;;7.64;100.00
10518;BME280;5307;42.548;22.968;2023-03-22T03:04:30;93498.09;;;7.55;100.00
10518;BME280;5307;42.548;22.968;2023-03-22T03:07:00;93500.91;;;7.77;100.00
10518;BME280;5307;42.548;22.968;2023-03-22T03:09:30;93494.78;;;7.72;100.00
10518;BME280;5307;42.548;22.968;2023-03-22T03:11:58;93496.44;;;7.70;100.00
10518;BME280;5307;42.548;22.968;2023-03-22T03:14:26;93499.03;;;7.73;100.00
10518;BME280;5307;42.548;22.968;2023-03-22T03:17:04;93495.47;;;7.64;100.00
10518;BME280;5307;42.548;22.968;2023-03-22T03:19:35;93492.44;;;7.62;100.00
10518;BME280;5307;42.548;22.968;2023-03-22T03:22:11;93501.78;;;7.61;100.00
10518;BME280;5307;42.548;22.968;2023-03-22T03:24:48;93505.38;;;7.58;100.00
10518;BME280;5307;42.548;22.968;2023-03-22T03:27:22;93505.69;;;7.60;100.00
10518;BME280;5307;42.548;22.968;2023-03-22T03:29:55;93509.50;;;7.62;100.00
10518;BME280;5307;42.548;22.968;2023-03-22T03:32:28;93507.53;;;7.76;100.00
10518;BME280;5307;42.548;22.968;2023-03-22T03:35:04;93511.13;;;7.60;100.00
10518;BME280;5307;42.548;22.968;2023-03-22T03:37:36;93504.91;;;7.59;100.00
10518;BME280;5307;42.548;22.968;2023-03-22T03:40:11;93514.06;;;7.65;100.00
10518;BME280;5307;42.548;22.968;2023-03-22T03:42:43;93517.34;;;7.60;100.00
10518;BME280;5307;42.548;22.968;2023-03-22T03:45:13;93519.06;;;7.54;100.00
10518;BME280;5307;42.548;22.968;2023-03-22T03:47:42;93520.91;;;7.57;100.00
10518;BME280;5307;42.548;22.968;2023-03-22T03:50:11;93523.09;;;7.62;100.00
10518;BME280;5307;42.548;22.968;2023-03-22T03:52:39;93524.69;;;7.60;100.00
10518;BME280;5307;42.548;22.968;2023-03-22T03:55:08;93523.53;;;7.48;100.00
10518;BME280;5307;42.548;22.968;2023-03-22T03:57:35;93528.84;;;7.52;100.00
10518;BME280;5307;42.548;22.968;2023-03-22T04:00:03;93524.28;;;7.61;100.00
10518;BME280;5307;42.548;22.968;2023-03-22T04:02:30;93530.38;;;7.53;100.00
10518;BME280;5307;42.548;22.968;2023-03-22T04:04:57;93528.22;;;7.60;100.00
10518;BME280;5307;42.548;22.968;2023-03-22T04:07:24;93528.63;;;7.59;100.00
10518;BME280;5307;42.548;22.968;2023-03-22T04:09:52;93541.78;;;7.60;100.00
10518;BME280;5307;42.548;22.968;2023-03-22T04:12:20;93542.97;;;7.59;100.00
10518;BME280;5307;42.548;22.968;2023-03-22T04:14:46;93530.25;;;7.56;100.00
10518;BME280;5307;42.548;22.968;2023-03-22T04:17:13;93539.06;;;7.60;100.00
10518;BME280;5307;42.548;22.968;2023-03-22T04:19:40;93528.53;;;7.62;100.00
10518;BME280;5307;42.548;22.968;2023-03-22T04:22:09;93535.47;;;7.63;100.00
10518;BME280;5307;42.548;22.968;2023-03-22T04:24:39;93538.63;;;7.62;100.00
10518;BME280;5307;42.548;22.968;2023-03-22T04:27:05;93526.56;;;7.63;100.00
10518;BME280;5307;42.548;22.968;2023-03-22T04:29:34;93536.69;;;7.50;100.00
10518;BME280;5307;42.548;22.968;2023-03-22T04:32:02;93534.59;;;7.54;100.00
10518;BME280;5307;42.548;22.968;2023-03-22T04:34:28;93533.72;;;7.57;100.00
10518;BME280;5307;42.548;22.968;2023-03-22T04:36:56;93534.72;;;7.63;100.00
10518;BME280;5307;42.548;22.968;2023-03-22T04:39:26;93547.44;;;7.66;100.00
10518;BME280;5307;42.548;22.968;2023-03-22T04:41:53;93537.13;;;7.61;100.00
10518;BME280;5307;42.548;22.968;2023-03-22T04:44:20;93535.16;;;7.61;100.00
10518;BME280;5307;42.548;22.968;2023-03-22T04:46:48;93538.41;;;7.56;100.00
10518;BME280;5307;42.548;22.968;2023-03-22T04:49:15;93542.88;;;7.50;100.00
10518;BME280;5307;42.548;22.968;2023-03-22T04:51:42;93539.72;;;7.52;100.00
10518;BME280;5307;42.548;22.968;2023-03-22T04:54:08;93547.75;;;7.55;100.00
10518;BME280;5307;42.548;22.968;2023-03-22T04:56:35;93549.19;;;7.47;100.00
10518;BME280;5307;42.548;22.968;2023-03-22T04:59:02;93551.22;;;7.43;100.00
10518;BME280;5307;42.548;22.968;2023-03-22T05:01:29;93547.44;;;7.53;100.00
10518;BME280;5307;42.548;22.968;2023-03-22T05:03:57;93552.31;;;7.58;100.00
10518;BME280;5307;42.548;22.968;2023-03-22T05:06:23;93546.25;;;7.54;100.00
10518;BME280;5307;42.548;22.968;2023-03-22T05:08:51;93557.75;;;7.58;100.00
10518;BME280;5307;42.548;22.968;2023-03-22T05:11:18;93548.94;;;7.54;100.00
10518;BME280;5307;42.548;22.968;2023-03-22T05:13:45;93551.66;;;7.54;100.00
10518;BME280;5307;42.548;22.968;2023-03-22T05:16:11;93554.19;;;7.61;100.00
10518;BME280;5307;42.548;22.968;2023-03-22T05:18:38;93558.63;;;7.55;100.00
10518;BME280;5307;42.548;22.968;2023-03-22T05:21:12;93558.31;;;7.53;100.00
10518;BME280;5307;42.548;22.968;2023-03-22T05:23:40;93565.13;;;7.58;100.00
10518;BME280;5307;42.548;22.968;2023-03-22T05:26:07;93558.31;;;7.66;100.00
10518;BME280;5307;42.548;22.968;2023-03-22T05:28:35;93563.09;;;7.62;100.00
10518;BME280;5307;42.548;22.968;2023-03-22T05:31:02;93562.88;;;7.69;100.00
10518;BME280;5307;42.548;22.968;2023-03-22T05:33:29;93573.09;;;7.65;100.00
10518;BME280;5307;42.548;22.968;2023-03-22T05:35:56;93577.66;;;7.55;100.00
10518;BME280;5307;42.548;22.968;2023-03-22T05:38:24;93567.78;;;7.61;100.00
10518;BME280;5307;42.548;22.968;2023-03-22T05:40:51;93573.84;;;7.78;100.00
10518;BME280;5307;42.548;22.968;2023-03-22T05:43:18;93570.38;;;7.52;100.00
10518;BME280;5307;42.548;22.968;2023-03-22T05:45:45;93576.69;;;7.74;100.00
10518;BME280;5307;42.548;22.968;2023-03-22T05:48:13;93577.75;;;7.64;100.00
10518;BME280;5307;42.548;22.968;2023-03-22T05:50:40;93586.69;;;7.78;100.00
10518;BME280;5307;42.548;22.968;2023-03-22T05:53:07;93589.41;;;7.78;100.00
10518;BME280;5307;42.548;22.968;2023-03-22T05:55:35;93591.25;;;7.81;100.00
10518;BME280;5307;42.548;22.968;2023-03-22T05:58:02;93591.44;;;7.86;100.00
10518;BME280;5307;42.548;22.968;2023-03-22T06:00:30;93593.19;;;7.93;100.00
10518;BME280;5307;42.548;22.968;2023-03-22T06:02:58;93591.69;;;7.92;100.00
10518;BME280;5307;42.548;22.968;2023-03-22T06:05:28;93594.28;;;7.95;100.00
10518;BME280;5307;42.548;22.968;2023-03-22T06:07:56;93590.78;;;7.95;100.00
10518;BME280;5307;42.548;22.968;2023-03-22T06:10:23;93592.19;;;7.99;100.00
10518;BME280;5307;42.548;22.968;2023-03-22T06:12:52;93590.91;;;8.04;100.00
10518;BME280;5307;42.548;22.968;2023-03-22T06:15:20;93581.22;;;8.03;100.00
10518;BME280;5307;42.548;22.968;2023-03-22T06:17:46;93588.59;;;8.15;100.00
10518;BME280;5307;42.548;22.968;2023-03-22T06:20:14;93590.78;;;8.20;100.00
10518;BME280;5307;42.548;22.968;2023-03-22T06:22:41;93598.81;;;8.24;100.00
10518;BME280;5307;42.548;22.968;2023-03-22T06:25:09;93592.16;;;8.25;100.00
10518;BME280;5307;42.548;22.968;2023-03-22T06:27:37;93592.03;;;8.41;100.00
10518;BME280;5307;42.548;22.968;2023-03-22T06:30:06;93585.97;;;8.37;100.00
10518;BME280;5307;42.548;22.968;2023-03-22T06:32:33;93593.16;;;8.31;100.00
10518;BME280;5307;42.548;22.968;2023-03-22T06:35:00;93582.50;;;8.37;100.00
10518;BME280;5307;42.548;22.968;2023-03-22T06:37:27;93587.16;;;8.36;100.00
10518;BME280;5307;42.548;22.968;2023-03-22T06:39:53;93593.47;;;8.46;100.00
10518;BME280;5307;42.548;22.968;2023-03-22T06:42:20;93593.53;;;8.55;100.00
10518;BME280;5307;42.548;22.968;2023-03-22T06:44:47;93594.66;;;8.45;100.00
10518;BME280;5307;42.548;22.968;2023-03-22T06:47:15;93597.25;;;8.48;100.00
10518;BME280;5307;42.548;22.968;2023-03-22T06:49:42;93589.22;;;8.45;100.00
10518;BME280;5307;42.548;22.968;2023-03-22T06:52:09;93595.31;;;8.49;100.00
10518;BME280;5307;42.548;22.968;2023-03-22T06:54:35;93597.03;;;8.43;100.00
10518;BME280;5307;42.548;22.968;2023-03-22T06:57:02;93597.44;;;8.54;100.00
10518;BME280;5307;42.548;22.968;2023-03-22T06:59:29;93600.88;;;8.45;100.00
10518;BME280;5307;42.548;22.968;2023-03-22T07:01:56;93600.75;;;8.49;100.00
10518;BME280;5307;42.548;22.968;2023-03-22T07:04:24;93600.31;;;8.50;100.00
10518;BME280;5307;42.548;22.968;2023-03-22T07:06:52;93607.25;;;8.51;100.00
10518;BME280;5307;42.548;22.968;2023-03-22T07:09:19;93612.59;;;8.55;100.00
10518;BME280;5307;42.548;22.968;2023-03-22T07:11:48;93612.53;;;8.68;100.00
10518;BME280;5307;42.548;22.968;2023-03-22T07:14:15;93625.56;;;8.51;100.00
10518;BME280;5307;42.548;22.968;2023-03-22T07:16:42;93619.53;;;8.56;100.00
10518;BME280;5307;42.548;22.968;2023-03-22T07:19:08;93621.91;;;8.67;100.00
10518;BME280;5307;42.548;22.968;2023-03-22T07:21:37;93619.63;;;8.65;100.00
10518;BME280;5307;42.548;22.968;2023-03-22T07:24:05;93619.03;;;8.83;100.00
10518;BME280;5307;42.548;22.968;2023-03-22T07:26:33;93622.44;;;8.74;100.00
10518;BME280;5307;42.548;22.968;2023-03-22T07:29:00;93624.34;;;8.86;100.00
10518;BME280;5307;42.548;22.968;2023-03-22T07:31:27;93628.16;;;8.89;100.00
10518;BME280;5307;42.548;22.968;2023-03-22T07:33:53;93626.13;;;8.80;100.00
10518;BME280;5307;42.548;22.968;2023-03-22T07:36:20;93630.44;;;8.90;100.00
10518;BME280;5307;42.548;22.968;2023-03-22T07:38:51;93642.81;;;9.04;100.00
10518;BME280;5307;42.548;22.968;2023-03-22T07:41:18;93639.38;;;8.91;100.00
10518;BME280;5307;42.548;22.968;2023-03-22T07:43:45;93643.09;;;8.84;100.00
10518;BME280;5307;42.548;22.968;2023-03-22T07:46:12;93646.22;;;8.96;100.00
10518;BME280;5307;42.548;22.968;2023-03-22T07:48:38;93656.91;;;8.90;100.00
10518;BME280;5307;42.548;22.968;2023-03-22T07:51:05;93647.78;;;8.84;100.00
10518;BME280;5307;42.548;22.968;2023-03-22T07:53:32;93660.44;;;8.78;100.00
10518;BME280;5307;42.548;22.968;2023-03-22T07:56:02;93659.66;;;8.90;100.00
10518;BME280;5307;42.548;22.968;2023-03-22T07:58:29;93662.63;;;9.05;100.00
10518;BME280;5307;42.548;22.968;2023-03-22T08:00:56;93656.63;;;9.10;100.00
10518;BME280;5307;42.548;22.968;2023-03-22T08:03:24;93664.34;;;9.11;100.00
10518;BME280;5307;42.548;22.968;2023-03-22T08:05:51;93659.59;;;9.03;100.00
10518;BME280;5307;42.548;22.968;2023-03-22T08:08:18;93655.19;;;9.18;100.00
10518;BME280;5307;42.548;22.968;2023-03-22T08:10:48;93649.50;;;9.12;100.00
10518;BME280;5307;42.548;22.968;2023-03-22T08:13:17;93654.53;;;9.14;100.00
10518;BME280;5307;42.548;22.968;2023-03-22T08:15:43;93648.53;;;9.19;100.00
10518;BME280;5307;42.548;22.968;2023-03-22T08:18:10;93659.09;;;9.17;100.00
10518;BME280;5307;42.548;22.968;2023-03-22T08:20:37;93646.38;;;9.36;100.00
10518;BME280;5307;42.548;22.968;2023-03-22T08:23:04;93652.81;;;9.51;100.00
10518;BME280;5307;42.548;22.968;2023-03-22T08:25:32;93650.13;;;9.29;100.00
10518;BME280;5307;42.548;22.968;2023-03-22T08:27:59;93653.78;;;9.35;100.00
10518;BME280;5307;42.548;22.968;2023-03-22T08:30:27;93654.91;;;9.25;100.00
10518;BME280;5307;42.548;22.968;2023-03-22T08:32:54;93662.38;;;9.12;100.00
10518;BME280;5307;42.548;22.968;2023-03-22T08:35:21;93657.09;;;9.30;100.00
10518;BME280;5307;42.548;22.968;2023-03-22T08:37:47;93650.75;;;9.33;100.00
10518;BME280;5307;42.548;22.968;2023-03-22T08:40:14;93653.59;;;9.30;100.00
10518;BME280;5307;42.548;22.968;2023-03-22T08:42:41;93656.44;;;9.26;100.00
10518;BME280;5307;42.548;22.968;2023-03-22T08:45:09;93658.91;;;9.33;100.00
10518;BME280;5307;42.548;22.968;2023-03-22T08:47:37;93662.03;;;9.44;100.00
10518;BME280;5307;42.548;22.968;2023-03-22T08:50:04;93665.19;;;9.21;100.00
10518;BME280;5307;42.548;22.968;2023-03-22T08:52:31;93654.91;;;9.47;100.00
10518;BME280;5307;42.548;22.968;2023-03-22T08:54:58;93661.88;;;9.26;100.00
10518;BME280;5307;42.548;22.968;2023-03-22T08:57:25;93667.09;;;9.33;100.00
10518;BME280;5307;42.548;22.968;2023-03-22T08:59:53;93662.28;;;9.37;100.00
10518;BME280;5307;42.548;22.968;2023-03-22T09:02:22;93666.34;;;9.33;100.00
10518;BME280;5307;42.548;22.968;2023-03-22T09:04:50;93655.53;;;9.51;100.00
10518;BME280;5307;42.548;22.968;2023-03-22T09:07:17;93667.47;;;9.44;100.00
10518;BME280;5307;42.548;22.968;2023-03-22T09:09:44;93667.72;;;9.37;100.00
10518;BME280;5307;42.548;22.968;2023-03-22T09:12:11;93655.44;;;9.33;100.00
10518;BME280;5307;42.548;22.968;2023-03-22T09:14:38;93660.88;;;9.55;100.00
10518;BME280;5307;42.548;22.968;2023-03-22T09:17:05;93664.00;;;9.44;100.00
10518;BME280;5307;42.548;22.968;2023-03-22T09:19:32;93661.38;;;9.62;100.00
10518;BME280;5307;42.548;22.968;2023-03-22T09:22:00;93665.25;;;9.83;100.00
10518;BME280;5307;42.548;22.968;2023-03-22T09:24:27;93664.41;;;9.64;100.00
10518;BME280;5307;42.548;22.968;2023-03-22T09:26:53;93662.03;;;9.44;100.00
10518;BME280;5307;42.548;22.968;2023-03-22T09:29:22;93659.78;;;9.52;100.00
10518;BME280;5307;42.548;22.968;2023-03-22T09:31:49;93653.72;;;9.26;100.00
10518;BME280;5307;42.548;22.968;2023-03-22T09:34:16;93669.31;;;9.47;100.00
10518;BME280;5307;42.548;22.968;2023-03-22T09:36:42;93670.13;;;9.57;100.00
10518;BME280;5307;42.548;22.968;2023-03-22T09:39:11;93664.06;;;9.31;100.00
10518;BME280;5307;42.548;22.968;2023-03-22T09:41:40;93672.41;;;9.37;100.00
10518;BME280;5307;42.548;22.968;2023-03-22T09:44:13;93671.06;;;9.41;100.00
10518;BME280;5307;42.548;22.968;2023-03-22T09:46:43;93662.50;;;9.52;100.00
10518;BME280;5307;42.548;22.968;2023-03-22T09:49:14;93671.78;;;9.33;100.00
10518;BME280;5307;42.548;22.968;2023-03-22T09:51:43;93661.66;;;9.33;100.00
10518;BME280;5307;42.548;22.968;2023-03-22T09:54:16;93665.44;;;9.58;100.00
10518;BME280;5307;42.548;22.968;2023-03-22T09:56:48;93667.72;;;9.37;100.00
10518;BME280;5307;42.548;22.968;2023-03-22T09:59:22;93660.22;;;9.29;100.00
10518;BME280;5307;42.548;22.968;2023-03-22T10:01:55;93661.03;;;9.29;100.00
10518;BME280;5307;42.548;22.968;2023-03-22T10:04:42;93671.78;;;9.33;100.00
10518;BME280;5307;42.548;22.968;2023-03-22T10:07:23;93668.84;;;9.27;100.00
10518;BME280;5307;42.548;22.968;2023-03-22T10:10:00;93669.06;;;9.33;100.00
10518;BME280;5307;42.548;22.968;2023-03-22T10:12:33;93662.78;;;9.45;100.00
10518;BME280;5307;42.548;22.968;2023-03-22T10:15:10;93668.69;;;9.43;100.00
10518;BME280;5307;42.548;22.968;2023-03-22T10:17:41;93669.09;;;9.64;100.00
10518;BME280;5307;42.548;22.968;2023-03-22T10:20:20;93671.72;;;9.45;100.00
10518;BME280;5307;42.548;22.968;2023-03-22T10:22:50;93673.28;;;9.56;100.00
10518;BME280;5307;42.548;22.968;2023-03-22T10:25:23;93674.34;;;9.80;100.00
10518;BME280;5307;42.548;22.968;2023-03-22T10:27:50;93668.31;;;9.85;100.00
10518;BME280;5307;42.548;22.968;2023-03-22T10:30:20;93677.66;;;9.75;100.00
10518;BME280;5307;42.548;22.968;2023-03-22T10:32:51;93674.25;;;9.93;100.00
10518;BME280;5307;42.548;22.968;2023-03-22T10:35:20;93674.97;;;9.84;100.00
10518;BME280;5307;42.548;22.968;2023-03-22T10:37:48;93676.91;;;9.74;100.00
10518;BME280;5307;42.548;22.968;2023-03-22T10:40:20;93675.47;;;9.92;100.00
10518;BME280;5307;42.548;22.968;2023-03-22T10:42:53;93671.38;;;9.96;100.00
10518;BME280;5307;42.548;22.968;2023-03-22T10:45:23;93664.94;;;9.72;100.00
10518;BME280;5307;42.548;22.968;2023-03-22T10:47:54;93664.41;;;9.64;100.00
10518;BME280;5307;42.548;22.968;2023-03-22T10:50:25;93665.41;;;9.79;100.00
10518;BME280;5307;42.548;22.968;2023-03-22T10:52:57;93663.66;;;9.64;100.00
10518;BME280;5307;42.548;22.968;2023-03-22T10:55:28;93666.16;;;9.80;100.00
10518;BME280;5307;42.548;22.968;2023-03-22T10:58:00;93657.31;;;9.98;100.00
10518;BME280;5307;42.548;22.968;2023-03-22T11:00:34;93667.50;;;10.06;100.00
10518;BME280;5307;42.548;22.968;2023-03-22T11:03:00;93649.72;;;10.24;100.00
10518;BME280;5307;42.548;22.968;2023-03-22T11:05:28;93661.88;;;10.32;100.00
10518;BME280;5307;42.548;22.968;2023-03-22T11:07:56;93652.81;;;10.44;100.00
10518;BME280;5307;42.548;22.968;2023-03-22T11:10:26;93665.59;;;10.56;100.00
10518;BME280;5307;42.548;22.968;2023-03-22T11:13:12;93660.44;;;10.67;100.00
10518;BME280;5307;42.548;22.968;2023-03-22T11:15:42;93665.59;;;10.56;100.00
10518;BME280;5307;42.548;22.968;2023-03-22T11:18:15;93664.22;;;10.61;100.00
10518;BME280;5307;42.548;22.968;2023-03-22T11:20:53;93660.09;;;10.47;100.00
10518;BME280;5307;42.548;22.968;2023-03-22T11:23:21;93655.16;;;10.24;100.00
10518;BME280;5307;42.548;22.968;2023-03-22T11:25:49;93653.31;;;10.21;100.00
10518;BME280;5307;42.548;22.968;2023-03-22T11:28:21;93647.97;;;10.08;100.00
10518;BME280;5307;42.548;22.968;2023-03-22T11:31:10;93653.97;;;10.25;100.00
10518;BME280;5307;42.548;22.968;2023-03-22T11:33:37;93649.53;;;10.18;100.00
10518;BME280;5307;42.548;22.968;2023-03-22T11:36:15;93649.28;;;10.34;100.00
10518;BME280;5307;42.548;22.968;2023-03-22T11:38:43;93653.09;;;10.37;100.00
10518;BME280;5307;42.548;22.968;2023-03-22T11:41:19;93657.53;;;10.44;100.00
10518;BME280;5307;42.548;22.968;2023-03-22T11:43:50;93645.78;;;10.25;100.00
10518;BME280;5307;42.548;22.968;2023-03-22T11:46:19;93642.84;;;10.19;100.00
10518;BME280;5307;42.548;22.968;2023-03-22T11:48:48;93645.91;;;10.21;100.00
10518;BME280;5307;42.548;22.968;2023-03-22T11:51:18;93651.22;;;10.25;100.00
10518;BME280;5307;42.548;22.968;2023-03-22T11:53:55;93652.25;;;10.58;100.00
10518;BME280;5307;42.548;22.968;2023-03-22T11:56:27;93647.31;;;10.35;100.00
10518;BME280;5307;42.548;22.968;2023-03-22T11:58:58;93652.63;;;10.29;100.00
10518;BME280;5307;42.548;22.968;2023-03-22T12:01:39;93643.97;;;10.31;100.00
10518;BME280;5307;42.548;22.968;2023-03-22T12:04:13;93648.47;;;10.56;100.00
10518;BME280;5307;42.548;22.968;2023-03-22T12:06:41;93650.09;;;10.44;100.00
10518;BME280;5307;42.548;22.968;2023-03-22T12:09:19;93643.41;;;10.54;100.00
10518;BME280;5307;42.548;22.968;2023-03-22T12:11:49;93649.72;;;10.91;100.00
10518;BME280;5307;42.548;22.968;2023-03-22T12:14:21;93634.66;;;10.78;100.00
10518;BME280;5307;42.548;22.968;2023-03-22T12:16:53;93639.22;;;10.72;100.00
10518;BME280;5307;42.548;22.968;2023-03-22T12:19:30;93638.59;;;10.58;98.84
10518;BME280;5307;42.548;22.968;2023-03-22T12:22:08;93634.81;;;10.83;99.65
10518;BME280;5307;42.548;22.968;2023-03-22T12:24:36;93640.88;;;10.78;99.19
10518;BME280;5307;42.548;22.968;2023-03-22T12:27:09;93638.16;;;10.78;100.00
10518;BME280;5307;42.548;22.968;2023-03-22T12:29:45;93635.59;;;10.75;99.05
10518;BME280;5307;42.548;22.968;2023-03-22T12:32:16;93630.25;;;10.62;97.81
10518;BME280;5307;42.548;22.968;2023-03-22T12:34:48;93629.53;;;10.89;99.04
10518;BME280;5307;42.548;22.968;2023-03-22T12:37:18;93633.75;;;10.81;97.38
10518;BME280;5307;42.548;22.968;2023-03-22T12:39:50;93633.00;;;11.08;99.17
10518;BME280;5307;42.548;22.968;2023-03-22T12:42:22;93625.59;;;10.90;98.10
10518;BME280;5307;42.548;22.968;2023-03-22T12:44:56;93618.00;;;10.85;98.10
10518;BME280;5307;42.548;22.968;2023-03-22T12:47:27;93632.56;;;10.73;98.22
10518;BME280;5307;42.548;22.968;2023-03-22T12:49:59;93633.16;;;10.77;98.68
10518;BME280;5307;42.548;22.968;2023-03-22T12:52:32;93629.06;;;10.72;98.06
10518;BME280;5307;42.548;22.968;2023-03-22T12:55:01;93625.56;;;10.81;99.01
10518;BME280;5307;42.548;22.968;2023-03-22T12:57:29;93628.00;;;10.79;98.82
10518;BME280;5307;42.548;22.968;2023-03-22T13:00:03;93618.00;;;10.85;100.00
10518;BME280;5307;42.548;22.968;2023-03-22T13:02:35;93615.38;;;10.63;100.00
10518;BME280;5307;42.548;22.968;2023-03-22T13:05:05;93629.06;;;10.72;100.00
10518;BME280;5307;42.548;22.968;2023-03-22T13:07:41;93621.75;;;10.60;100.00
10518;BME280;5307;42.548;22.968;2023-03-22T13:10:39;93628.44;;;10.68;100.00
10518;BME280;5307;42.548;22.968;2023-03-22T13:13:13;93628.31;;;10.72;100.00
10518;BME280;5307;42.548;22.968;2023-03-22T13:15:57;93621.34;;;10.89;100.00